Flight Track Log - Related Links

Times and Time Zones

All times are in EDT time to prevent confusion due to time zone crossing. See the EJA583 flight status page for this flight to view local times or setup timezone preferences in your user account.

Time Position Orientation Groundspeed Altitude Reporting Facility
EDT Latitude Longitude Course Direction KTS MPH feet Rate Location/Type
Thu 07:50:08 AM 31.6858 -98.9467 167° South 343 395 6,200  Level Houston Center
Thu 07:51:09 AM 31.6350 -98.9328 167° South 226 260 10,300 3,295 Climbing Houston Center
Thu 07:52:10 AM 31.5722 -98.9217 171° South 224 258 12,900 2,311 Climbing Houston Center
Thu 07:53:11 AM 31.4958 -98.9072 171° South 260 299 15,000 2,016 Climbing Houston Center
Thu 07:54:12 AM 31.4108 -98.8928 172° South 294 338 17,000 1,967 Climbing Houston Center
Thu 07:55:13 AM 31.3203 -98.8781 172° South 319 367 19,000 1,967 Climbing Houston Center
Thu 07:56:14 AM 31.2267 -98.8831 183° South 339 390 21,000 1,918 Climbing Houston Center
Thu 07:57:15 AM 31.1367 -98.9050 192° South 332 382 22,900 984 Climbing Houston Center
Thu 07:58:16 AM 31.0422 -98.9297 193° South 339 390 23,000 49 Climbing Houston Center
Thu 07:59:17 AM 30.9414 -98.9564 193° South 362 417 23,000  Level Houston Center
Thu 08:00:18 AM 30.8400 -98.9811 192° South 367 422 23,000  Level Houston Center
Thu 08:01:19 AM 30.7433 -99.0056 192° South 355 409 23,000  Level Houston Center
Thu 08:02:21 AM 30.6483 -99.0308 193° South 349 402 23,000  Level Houston Center
Thu 08:03:22 AM 30.5531 -99.0547 192° South 347 399 23,000  Level Houston Center
Thu 08:04:23 AM 30.4569 -99.0794 193° South 348 400 23,000  Level Houston Center
Thu 08:05:24 AM 30.3625 -99.1031 192° South 345 397 23,000  Level Houston Center
Thu 08:06:25 AM 30.2731 -99.1264 193° South 347 399 23,000  Level Houston Center
Thu 08:07:27 AM 30.1608 -99.1542 192° South 345 397 23,000  Level Houston Center
Thu 08:08:28 AM 30.0669 -99.1781 192° South 344 396 23,000  Level Houston Center
Thu 08:09:29 AM 29.9722 -99.2014 192° South 345 397 23,000  Level Houston Center
Thu 08:10:30 AM 29.8761 -99.2194 189° South 348 400 23,000  Level Houston Center
Thu 08:11:32 AM 29.7786 -99.2308 186° South 350 403 23,000 49 Level Houston Center
Thu 08:12:33 AM 29.6719 -99.2433 186° South 353 406 23,100 49 Climbing Houston Center
Thu 08:13:34 AM 29.5739 -99.2556 186° South 353 406 23,100 -146 Level Houston Center
Thu 08:14:36 AM 29.4686 -99.2681 186° South 353 406 22,800 -878 Descending Houston Center
Thu 08:15:37 AM 29.3706 -99.2789 185° South 355 409 21,300 -1,672 Descending Houston Center
Thu 08:16:38 AM 29.2717 -99.2911 186° South 356 410 19,400 -1,902 Descending Houston Center
Thu 08:17:40 AM 29.1628 -99.3044 186° South 361 415 17,400 -2,098 Descending Houston Center
Thu 08:18:41 AM 29.0639 -99.3147 185° South 358 412 15,100 -2,341 Descending Houston Center
Thu 08:19:43 AM 28.9664 -99.3281 187° South 359 413 12,600 -2,390 Descending Houston Center
Thu 08:20:44 AM 28.8803 -99.3386 186° South 328 377 10,200 -2,293 Descending Houston Center
Thu 08:21:46 AM 28.8039 -99.3447 184° South 289 333 7,900 -2,195 Descending Houston Center
Thu 08:22:47 AM 28.7344 -99.3533 186° South 263 303 5,700 -2,195 Descending Houston Center
Thu 08:23:49 AM 28.6656 -99.3617 186° South 253 291 3,400 -1,317 Descending Houston Center
Thu 08:24:50 AM 28.6072 -99.3664 184° South 231 266 3,000 -341 Descending Houston Center
Thu 08:25:52 AM 28.5728 -99.4094 228° Southwest 228 262 2,700 -339 Descending Houston Center
Thu 08:26:54 AM 28.6058 -99.4558 309° West 206 237 2,300 -195 Descending Houston Center
Thu 08:27:55 AM 28.6467 -99.4758 337° Northwest 193 222 2,300  Level Houston Center
Thu 08:28:57 AM 28.6450 -99.4339 93° East 174 200 2,300  Level Houston Center
Thu 08:29:59 AM 28.6136 -99.3958 133° Southeast 169 194 2,300 -98 Level Houston Center
Thu 08:31:00 AM 28.5800 -99.3567 134° Southeast 168 193 2,100 -98 Descending Houston Center
Thu 08:32:02 AM 28.5467 -99.3181 134° Southeast 170 196 2,100 -145 Level Houston Center
Thu 08:33:04 AM 28.5119 -99.2778 134° Southeast 160 184 1,800 -439 Descending Houston Center
Thu 08:34:05 AM 28.4892 -99.2486 132° Southeast 151 174 1,200 -590 Descending Houston Center
Thu 08:36:00 AM 28.4500 -99.2167 127° Southeast  Level FlightAware Approximate
Thu 08:43:00 AM 28.4567 -99.2183 127° Southeast  Level Estimated
Thu 08:44:00 AM 28.4500 -99.2167 127° Southeast  Level FlightAware Approximate

Login

Don't have an account? Register now (free) for customized features, flight alerts, and more!